Time;durP1;ratioP1;P1;durP2;ratioP2;P2;SDS_P1;SDS_P2;PMS_P1;PMS_P2;Temp;Humidity;BMP_temperature;BMP_pressure;BME280_temperature;BME280_humidity;BME280_pressure;Samples;Min_cycle;Max_cycle;Signal;HPM_P1;HPM_P2
2024/01/29 00:00:15;;;;;;;;;43.75;42.25;;;;;1.81;56.90;101419.75;4856923;29;8882;-76
2024/01/29 00:03:06;;;;;;;;;44.00;38.25;;;;;2.15;55.49;101426.44;4844108;29;8896;-77
2024/01/29 00:05:35;;;;;;;;;45.20;37.60;;;;;2.35;54.84;101417.81;4855659;29;8897;-78
2024/01/29 00:08:04;;;;;;;;;43.50;38.75;;;;;2.59;54.57;101412.72;4857063;29;8883;-77
2024/01/29 00:10:33;;;;;;;;;45.50;41.75;;;;;2.79;54.10;101418.75;4859983;29;8859;-77
2024/01/29 00:13:02;;;;;;;;;40.80;32.20;;;;;2.98;53.02;101419.50;4857388;29;8862;-76
2024/01/29 00:15:32;;;;;;;;;47.50;40.00;;;;;3.10;52.62;101417.41;4856158;29;8898;-76
2024/01/29 00:18:01;;;;;;;;;46.50;42.00;;;;;3.19;51.91;101412.56;4856573;29;9024;-77
2024/01/29 00:20:32;;;;;;;;;38.75;33.25;;;;;2.93;52.72;101418.44;4807366;29;8945;-77
2024/01/29 00:23:00;;;;;;;;;43.00;38.25;;;;;2.04;55.06;101412.97;4836282;29;8912;-77
2024/01/29 00:25:30;;;;;;;;;35.20;31.40;;;;;1.93;55.32;101414.22;4821021;29;8886;-76
2024/01/29 00:27:58;;;;;;;;;38.60;34.20;;;;;2.10;54.98;101418.44;4819862;29;8882;-77
2024/01/29 00:30:27;;;;;;;;;48.20;42.20;;;;;2.29;54.39;101425.28;4836142;29;8872;-77
2024/01/29 00:32:56;;;;;;;;;44.75;40.25;;;;;2.29;54.45;101434.81;4839384;29;8903;-76
2024/01/29 00:35:25;;;;;;;;;49.50;43.00;;;;;2.15;54.99;101424.72;4822999;29;8895;-77
2024/01/29 00:37:55;;;;;;;;;46.00;37.50;;;;;2.34;54.62;101430.69;4840757;29;9708;-77
2024/01/29 00:40:25;;;;;;;;;43.75;41.25;;;;;2.46;54.09;101425.13;4858870;29;8884;-75
2024/01/29 00:42:54;;;;;;;;;47.20;39.80;;;;;2.44;53.67;101425.06;4858909;29;8910;-76
2024/01/29 00:45:23;;;;;;;;;47.00;40.50;;;;;2.67;53.44;101430.34;4839603;29;8899;-77
2024/01/29 00:47:52;;;;;;;;;40.80;37.00;;;;;2.76;52.38;101425.53;4840569;29;8931;-76
2024/01/29 00:50:21;;;;;;;;;43.00;39.25;;;;;2.89;51.60;101437.31;4823020;29;8946;-76
2024/01/29 00:52:49;;;;;;;;;46.00;41.80;;;;;2.86;51.86;101432.00;4850267;29;9793;-77
2024/01/29 00:55:20;;;;;;;;;42.00;38.60;;;;;3.02;52.02;101430.91;4857216;29;8923;-77
2024/01/29 00:57:49;;;;;;;;;45.50;41.00;;;;;3.02;51.27;101428.31;4859318;29;8908;-77
2024/01/29 01:00:18;;;;;;;;;43.75;38.25;;;;;3.12;51.55;101428.72;4850710;29;8856;-77
2024/01/29 01:02:47;;;;;;;;;39.40;33.00;;;;;3.12;51.17;101433.94;4844795;29;8897;-77
2024/01/29 01:05:16;;;;;;;;;36.60;34.20;;;;;3.14;50.72;101432.28;4858593;29;9008;-75
2024/01/29 01:07:45;;;;;;;;;37.20;32.60;;;;;3.23;50.68;101423.09;4858750;29;8896;-77
2024/01/29 01:10:15;;;;;;;;;28.80;28.80;;;;;3.24;49.93;101420.56;4858130;29;8893;-76
2024/01/29 01:12:45;;;;;;;;;36.00;32.40;;;;;3.29;49.86;101416.41;4858154;29;8869;-77
2024/01/29 01:15:14;;;;;;;;;27.60;27.60;;;;;3.38;49.78;101421.09;4851352;29;8967;-76
2024/01/29 01:17:42;;;;;;;;;34.20;31.40;;;;;3.20;50.62;101423.84;4837786;29;8988;-76
2024/01/29 01:20:12;;;;;;;;;37.40;37.00;;;;;2.49;52.29;101426.16;4840101;29;8875;-79
2024/01/29 01:22:41;;;;;;;;;36.80;32.60;;;;;1.61;54.77;101434.38;4839956;29;8859;-76
2024/01/29 01:25:10;;;;;;;;;37.80;35.00;;;;;1.09;57.08;101427.66;4839885;29;8914;-75
2024/01/29 01:27:39;;;;;;;;;38.25;35.00;;;;;0.72;58.74;101430.97;4848292;29;8884;-76
2024/01/29 01:30:10;;;;;;;;;32.20;29.20;;;;;1.10;57.47;101426.81;4858168;29;8903;-78
2024/01/29 01:32:38;;;;;;;;;32.40;30.60;;;;;1.03;57.86;101430.81;4850076;29;9619;-76
2024/01/29 01:35:08;;;;;;;;;34.40;31.80;;;;;0.98;58.03;101428.84;4842549;29;8869;-76
2024/01/29 01:37:37;;;;;;;;;40.20;36.60;;;;;0.83;58.12;101421.16;4856673;29;8892;-77
2024/01/29 01:40:08;;;;;;;;;31.60;29.80;;;;;0.47;59.64;101415.94;4860206;29;8900;-76
2024/01/29 01:42:39;;;;;;;;;32.20;30.80;;;;;0.21;61.00;101417.19;4859108;29;8964;-76
2024/01/29 01:45:11;;;;;;;;;33.40;32.80;;;;;0.06;61.60;101425.94;4857741;29;8877;-76
2024/01/29 01:47:40;;;;;;;;;38.20;33.80;;;;;-0.03;62.02;101417.72;4852681;29;8917;-78
2024/01/29 01:50:11;;;;;;;;;34.40;31.60;;;;;-0.08;61.94;101426.03;4822949;29;8880;-75
2024/01/29 01:52:41;;;;;;;;;35.60;32.00;;;;;-0.25;62.64;101420.84;4839257;29;8895;-75
2024/01/29 01:55:10;;;;;;;;;34.20;31.40;;;;;-0.27;62.64;101411.25;4841113;29;9062;-77
2024/01/29 01:57:41;;;;;;;;;31.60;29.00;;;;;0.21;61.11;101417.19;4856871;29;8915;-76
2024/01/29 02:00:13;;;;;;;;;38.80;32.20;;;;;0.80;59.04;101408.06;4856348;29;8891;-78
2024/01/29 02:02:42;;;;;;;;;69.25;57.25;;;;;1.13;57.67;101416.63;4823585;29;8889;-77
2024/01/29 02:05:11;;;;;;;;;77.75;62.75;;;;;1.41;56.88;101413.63;4837040;29;8883;-78
2024/01/29 02:07:40;;;;;;;;;80.00;60.75;;;;;1.68;55.79;101410.50;4853139;29;9776;-78
2024/01/29 02:10:09;;;;;;;;;74.00;61.25;;;;;1.88;54.75;101418.28;4851942;29;8998;-77
2024/01/29 02:12:38;;;;;;;;;78.25;63.75;;;;;2.07;54.26;101420.00;4837444;29;8907;-77
2024/01/29 02:15:08;;;;;;;;;74.25;61.00;;;;;2.17;53.83;101419.59;4821808;29;8899;-76
2024/01/29 02:17:38;;;;;;;;;80.25;64.25;;;;;2.31;53.31;101420.19;4838912;29;8871;-77
2024/01/29 02:20:09;;;;;;;;;74.25;60.50;;;;;2.36;53.17;101411.78;4846739;29;8954;-78
2024/01/29 02:22:43;;;;;;;;;68.00;57.75;;;;;2.38;53.50;101415.31;4855443;29;8873;-76
2024/01/29 02:25:14;;;;;;;;;66.50;53.75;;;;;2.30;53.13;101421.03;4839552;29;8952;-77
2024/01/29 02:27:42;;;;;;;;;73.75;59.50;;;;;2.22;53.38;101418.97;4839957;29;8910;-76
2024/01/29 02:30:14;;;;;;;;;78.25;62.25;;;;;2.16;53.19;101418.69;4853247;29;8902;-76
2024/01/29 02:32:43;;;;;;;;;70.50;55.25;;;;;2.22;53.14;101420.66;4840381;29;8886;-77
2024/01/29 02:35:13;;;;;;;;;77.75;62.75;;;;;2.32;52.69;101421.97;4856322;29;8923;-77
2024/01/29 02:37:43;;;;;;;;;80.25;63.00;;;;;2.41;53.04;101418.06;4854936;29;8896;-76
2024/01/29 02:40:12;;;;;;;;;77.00;60.50;;;;;2.47;52.94;101422.63;4855382;29;8869;-76
2024/01/29 02:42:41;;;;;;;;;77.50;59.25;;;;;2.57;52.26;101416.97;4843254;29;8871;-76
2024/01/29 02:45:10;;;;;;;;;73.00;60.50;;;;;2.63;51.80;101420.66;4838478;29;9641;-76
2024/01/29 02:47:39;;;;;;;;;77.50;60.00;;;;;2.64;51.91;101414.63;4844484;29;8861;-76
2024/01/29 02:50:09;;;;;;;;;81.25;63.25;;;;;2.67;51.41;101419.97;4856598;29;8941;-77
2024/01/29 02:52:38;;;;;;;;;79.25;62.25;;;;;2.72;51.31;101424.53;4855470;29;8956;-76
2024/01/29 02:55:09;;;;;;;;;80.25;66.00;;;;;2.75;51.42;101423.75;4838966;29;8873;-77
2024/01/29 02:57:38;;;;;;;;;85.50;65.75;;;;;2.82;50.95;101425.78;4845528;29;9056;-76
2024/01/29 03:00:08;;;;;;;;;81.00;62.00;;;;;2.91;50.52;101420.09;4836960;29;8895;-76
2024/01/29 03:02:37;;;;;;;;;84.00;63.33;;;;;2.85;50.14;101412.94;4853392;29;9159;-78
2024/01/29 03:05:07;;;;;;;;;85.00;67.50;;;;;2.79;50.54;101408.38;4838843;29;9025;-79
2024/01/29 03:07:35;;;;;;;;;83.75;65.50;;;;;2.79;50.93;101413.56;4860480;29;8972;-76
2024/01/29 03:10:05;;;;;;;;;86.25;67.75;;;;;2.78;50.91;101416.09;4841909;29;8880;-76
2024/01/29 03:12:36;;;;;;;;;79.00;64.75;;;;;2.75;50.65;101413.38;4850422;29;8977;-77
2024/01/29 03:15:05;;;;;;;;;75.50;61.75;;;;;2.50;51.14;101421.84;4806250;29;8964;-76
2024/01/29 03:17:34;;;;;;;;;75.25;58.75;;;;;2.39;50.70;101422.28;4838120;29;8875;-77
2024/01/29 03:20:04;;;;;;;;;77.00;58.75;;;;;2.27;51.03;101410.50;4856371;29;8876;-76
2024/01/29 03:22:32;;;;;;;;;72.00;59.00;;;;;2.33;51.57;101409.03;4840577;29;8873;-76
2024/01/29 03:25:02;;;;;;;;;73.50;61.00;;;;;2.41;51.41;101412.00;4857899;29;8900;-76
2024/01/29 03:27:30;;;;;;;;;71.75;57.00;;;;;2.45;51.54;101412.97;4855285;29;9003;-77
2024/01/29 03:30:01;;;;;;;;;80.75;65.00;;;;;2.50;50.60;101420.13;4819631;29;8875;-78
2024/01/29 03:32:30;;;;;;;;;83.00;65.75;;;;;2.53;50.57;101412.47;4821459;29;8891;-75
2024/01/29 03:34:59;;;;;;;;;79.25;64.25;;;;;2.52;50.42;101410.69;4837653;29;8870;-76
2024/01/29 03:37:28;;;;;;;;;81.00;64.00;;;;;2.52;50.91;101410.69;4820728;29;8883;-77
2024/01/29 03:39:57;;;;;;;;;77.00;60.00;;;;;2.59;50.21;101411.84;4837548;29;8881;-78
2024/01/29 03:42:26;;;;;;;;;77.25;62.00;;;;;2.60;50.52;101413.66;4823558;29;8999;-77
2024/01/29 03:44:55;;;;;;;;;75.25;61.25;;;;;2.57;50.11;101408.31;4833435;29;8979;-75
2024/01/29 03:47:25;;;;;;;;;83.75;63.50;;;;;2.59;50.37;101411.84;4834756;29;9893;-77
2024/01/29 03:49:54;;;;;;;;;74.75;60.50;;;;;2.54;50.75;101415.97;4805231;29;8896;-77
2024/01/29 03:52:23;;;;;;;;;79.50;61.75;;;;;2.56;50.38;101414.31;4819940;29;9616;-78
2024/01/29 03:54:52;;;;;;;;;78.25;63.25;;;;;2.54;50.70;101415.97;4819840;29;8908;-77
2024/01/29 03:57:23;;;;;;;;;76.25;57.75;;;;;2.50;50.17;101412.34;4834854;29;8884;-77
2024/01/29 03:59:56;;;;;;;;;79.50;63.25;;;;;2.49;50.02;101405.41;4833891;29;8868;-77
2024/01/29 04:02:26;;;;;;;;;78.00;60.75;;;;;2.50;50.25;101409.75;4806088;29;8911;-79
2024/01/29 04:04:55;;;;;;;;;78.50;60.00;;;;;2.53;50.12;101409.00;4834715;29;8881;-75
2024/01/29 04:07:24;;;;;;;;;77.75;61.75;;;;;2.47;50.46;101404.44;4819279;29;8897;-77
2024/01/29 04:09:53;;;;;;;;;65.00;52.25;;;;;2.47;50.56;101408.75;4834989;29;8889;-76
2024/01/29 04:12:22;;;;;;;;;77.50;59.75;;;;;2.46;50.45;101404.38;4836500;29;8885;-77
2024/01/29 04:14:51;;;;;;;;;73.50;58.50;;;;;2.48;49.85;101420.91;4837442;29;8899;-77
2024/01/29 04:17:20;;;;;;;;;70.50;58.00;;;;;2.46;49.93;101405.25;4818660;29;9008;-77
2024/01/29 04:19:50;;;;;;;;;70.50;58.75;;;;;2.45;50.68;101418.16;4817847;29;8870;-76
2024/01/29 04:22:19;;;;;;;;;75.50;60.25;;;;;2.44;50.59;101425.06;4830900;29;8892;-79
2024/01/29 04:24:48;;;;;;;;;67.75;56.00;;;;;2.44;49.71;101425.06;4841781;29;8861;-77
2024/01/29 04:27:17;;;;;;;;;76.75;59.50;;;;;2.42;49.77;101430.19;4859270;29;8872;-75
2024/01/29 04:29:46;;;;;;;;;74.00;58.75;;;;;2.41;50.07;101423.25;4835039;29;10172;-77
2024/01/29 04:32:15;;;;;;;;;69.00;58.25;;;;;2.30;50.64;101426.22;4838586;29;8895;-77
2024/01/29 04:34:44;;;;;;;;;91.25;71.00;;;;;2.25;50.62;101426.00;4840480;29;8901;-77
2024/01/29 04:37:14;;;;;;;;;103.75;87.00;;;;;2.29;50.69;101429.59;4840248;29;9171;-77
2024/01/29 04:39:43;;;;;;;;;102.50;80.00;;;;;2.26;49.96;101429.47;4846804;29;10031;-76
2024/01/29 04:42:13;;;;;;;;;93.67;70.33;;;;;2.25;50.15;101435.50;4841621;29;9978;-76
2024/01/29 04:44:42;;;;;;;;;76.75;59.75;;;;;2.23;50.25;101428.50;4854653;29;9130;-77
2024/01/29 04:47:11;;;;;;;;;74.25;60.50;;;;;2.20;50.52;101428.41;4837589;29;8879;-76
2024/01/29 04:49:40;;;;;;;;;70.25;58.00;;;;;2.20;50.29;101431.00;4849131;29;8884;-76
2024/01/29 04:52:09;;;;;;;;;67.00;54.75;;;;;2.12;51.01;101437.53;4857154;29;8977;-78
2024/01/29 04:54:39;;;;;;;;;68.50;56.00;;;;;2.14;50.66;101435.00;4858224;29;8960;-78
2024/01/29 04:57:08;;;;;;;;;64.25;53.75;;;;;2.16;50.74;101436.84;4856115;29;8917;-77
2024/01/29 04:59:37;;;;;;;;;62.75;52.75;;;;;2.15;50.10;101445.47;4858379;29;9710;-76
2024/01/29 05:02:06;;;;;;;;;69.00;56.00;;;;;2.13;50.92;101436.72;4842272;29;8887;-76
2024/01/29 05:04:35;;;;;;;;;73.75;58.75;;;;;2.12;50.56;101436.66;4855015;29;8873;-77
2024/01/29 05:07:04;;;;;;;;;93.33;70.33;;;;;2.13;50.88;101431.53;4856236;29;8997;-77
2024/01/29 05:09:33;;;;;;;;;77.25;61.25;;;;;2.11;51.14;101430.59;4841738;29;9031;-77
2024/01/29 05:12:05;;;;;;;;;69.75;58.25;;;;;2.12;51.12;101439.25;4857002;29;9019;-76
2024/01/29 05:14:34;;;;;;;;;73.00;59.25;;;;;2.04;50.96;101431.13;4844055;29;8914;-77
2024/01/29 05:17:03;;;;;;;;;76.50;60.25;;;;;2.02;50.40;101433.66;4822301;29;9042;-78
2024/01/29 05:19:32;;;;;;;;;74.00;61.00;;;;;2.03;51.11;101444.91;4857078;29;8865;-77
2024/01/29 05:22:01;;;;;;;;;84.00;65.75;;;;;2.03;50.91;101443.22;4858260;29;8905;-76
2024/01/29 05:24:31;;;;;;;;;79.00;61.50;;;;;1.94;50.59;101454.91;4856706;29;8881;-77
2024/01/29 05:26:59;;;;;;;;;84.25;64.00;;;;;1.96;50.69;101455.84;4860384;29;8908;-76
2024/01/29 05:29:30;;;;;;;;;79.25;62.25;;;;;1.92;51.44;101451.31;4834040;29;8863;-78
2024/01/29 05:32:01;;;;;;;;;74.75;59.75;;;;;1.92;50.83;101449.63;4839463;29;9013;-76
2024/01/29 05:34:30;;;;;;;;;70.50;57.50;;;;;1.95;51.20;101449.75;4846286;29;8905;-77
2024/01/29 05:36:59;;;;;;;;;101.67;82.33;;;;;2.01;51.28;101457.84;4859307;29;8888;-77
2024/01/29 05:39:28;;;;;;;;;76.25;60.75;;;;;2.06;51.02;101460.63;4858315;29;9436;-75
2024/01/29 05:41:57;;;;;;;;;64.00;45.25;;;;;2.07;50.73;101462.41;4841314;29;8887;-76
2024/01/29 05:44:26;;;;;;;;;75.50;62.50;;;;;2.15;51.02;101462.75;4837754;29;8922;-77
2024/01/29 05:46:56;;;;;;;;;76.50;61.00;;;;;2.20;50.90;101474.19;4837730;29;9049;-77
2024/01/29 05:49:25;;;;;;;;;69.50;56.00;;;;;2.34;51.01;101473.09;4839137;29;8887;-76
2024/01/29 05:51:54;;;;;;;;;75.25;61.50;;;;;2.39;50.79;101471.59;4863241;29;9012;-77
2024/01/29 05:54:25;;;;;;;;;101.75;85.00;;;;;2.52;50.50;101477.31;4856064;29;10060;-77
2024/01/29 05:56:54;;;;;;;;;93.00;72.00;;;;;2.56;50.35;101474.94;4824628;29;9804;-76
2024/01/29 05:59:23;;;;;;;;;95.67;74.33;;;;;2.53;50.62;101476.50;4856443;29;9548;-79
2024/01/29 06:01:52;;;;;;;;;75.25;62.00;;;;;2.60;50.50;101478.56;4838723;29;9422;-76
2024/01/29 06:04:22;;;;;;;;;74.50;61.00;;;;;2.63;50.17;101478.66;4839741;29;8990;-78
2024/01/29 06:06:51;;;;;;;;;79.25;61.25;;;;;2.69;50.22;101489.28;4837949;29;8899;-76
2024/01/29 06:09:22;;;;;;;;;70.75;56.75;;;;;2.77;49.89;101484.47;4838957;29;8922;-76
2024/01/29 06:11:51;;;;;;;;;74.00;58.50;;;;;2.84;49.66;101489.06;4821116;29;8903;-79
2024/01/29 06:14:20;;;;;;;;;73.25;57.75;;;;;2.89;49.92;101481.47;4838478;29;8872;-76
2024/01/29 06:16:49;;;;;;;;;74.75;60.50;;;;;3.00;49.02;101480.22;4834625;29;8886;-76
2024/01/29 06:19:19;;;;;;;;;76.00;60.75;;;;;3.07;49.53;101487.44;4838695;29;8875;-78
2024/01/29 06:21:49;;;;;;;;;77.75;57.25;;;;;3.19;48.98;101494.84;4838284;29;8951;-79
2024/01/29 06:24:19;;;;;;;;;76.75;60.00;;;;;3.19;48.35;101500.03;4838380;29;8859;-78
2024/01/29 06:26:47;;;;;;;;;72.00;59.25;;;;;3.22;48.61;101502.75;4863698;29;9684;-77
2024/01/29 06:29:17;;;;;;;;;77.00;61.00;;;;;3.23;48.96;101507.13;4855189;29;8885;-78
2024/01/29 06:31:46;;;;;;;;;63.50;55.00;;;;;3.25;48.28;101521.06;4838894;29;8879;-76
2024/01/29 06:34:15;;;;;;;;;74.75;60.25;;;;;3.25;49.12;101526.28;4851270;29;8999;-77
2024/01/29 06:36:44;;;;;;;;;77.50;60.50;;;;;3.26;48.92;101533.25;4837356;29;8884;-76
2024/01/29 06:39:14;;;;;;;;;79.00;64.25;;;;;3.37;48.30;101536.28;4837157;29;8883;-77
2024/01/29 06:41:43;;;;;;;;;85.00;68.50;;;;;3.47;48.79;101543.66;4838093;29;8895;-77
2024/01/29 06:44:12;;;;;;;;;83.25;65.75;;;;;3.47;48.59;101525.47;4850681;29;8879;-77
2024/01/29 06:46:41;;;;;;;;;79.50;63.50;;;;;3.39;47.57;101527.72;4835129;29;8879;-77
2024/01/29 06:49:26;;;;;;;;;79.00;63.75;;;;;2.92;48.87;101525.75;4838113;29;8872;-76
2024/01/29 06:51:55;;;;;;;;;77.50;61.75;;;;;2.30;51.18;101515.31;4838156;29;10339;-76
2024/01/29 06:54:26;;;;;;;;;69.50;58.25;;;;;1.66;52.71;101520.16;4835389;29;8877;-78
2024/01/29 06:56:55;;;;;;;;;82.75;63.00;;;;;1.46;53.49;101533.03;4835000;29;10003;-76
2024/01/29 06:59:25;;;;;;;;;74.25;60.00;;;;;1.33;54.01;101533.25;4836066;29;8934;-77
2024/01/29 07:01:58;;;;;;;;;65.75;53.50;;;;;0.49;56.99;101532.47;4834780;29;8873;-70
2024/01/29 07:04:28;;;;;;;;;68.25;57.00;;;;;0.26;58.07;101525.25;4835047;29;8959;-70
2024/01/29 07:06:56;;;;;;;;;69.25;58.00;;;;;0.37;57.91;101541.34;4833632;29;8901;-69
2024/01/29 07:09:27;;;;;;;;;71.25;57.50;;;;;0.51;58.01;101543.78;4830532;29;8985;-70
2024/01/29 07:11:58;;;;;;;;;65.00;55.75;;;;;0.76;56.83;101536.44;4834750;29;8885;-71
2024/01/29 07:14:27;;;;;;;;;69.50;58.00;;;;;0.44;57.91;101543.47;4834702;29;8892;-70
2024/01/29 07:16:56;;;;;;;;;57.75;49.75;;;;;0.10;59.20;101537.28;4834582;29;8900;-71
2024/01/29 07:19:27;;;;;;;;;64.75;53.25;;;;;-0.04;59.70;101540.03;4834462;29;8892;-77
2024/01/29 07:21:57;;;;;;;;;73.50;59.25;;;;;0.11;60.10;101521.00;4819773;29;8880;-78
2024/01/29 07:24:28;;;;;;;;;76.00;58.25;;;;;0.72;58.44;101516.41;4800963;29;8886;-80
2024/01/29 07:26:58;;;;;;;;;67.50;57.25;;;;;1.17;56.87;101516.97;4843701;29;8979;-81
2024/01/29 07:29:29;;;;;;;;;72.50;60.50;;;;;1.52;55.61;101511.69;4819734;29;8973;-79
2024/01/29 07:31:59;;;;;;;;;65.50;51.50;;;;;1.76;54.02;101517.16;4825748;29;8879;-79
2024/01/29 07:34:28;;;;;;;;;75.75;60.25;;;;;1.63;54.05;101526.97;4838046;29;8986;-81
2024/01/29 07:36:57;;;;;;;;;80.00;64.00;;;;;1.32;55.17;101519.41;4851884;29;8895;-78
2024/01/29 07:39:28;;;;;;;;;71.25;56.50;;;;;1.39;54.67;101523.19;4825006;29;8886;-78
2024/01/29 07:41:56;;;;;;;;;73.75;61.25;;;;;1.01;56.12;101530.88;4833484;29;8912;-79
2024/01/29 07:44:26;;;;;;;;;80.75;63.25;;;;;1.74;54.58;101521.41;4834175;29;8918;-77
2024/01/29 07:46:54;;;;;;;;;84.00;67.75;;;;;1.81;53.96;101529.53;4837550;29;8876;-80
2024/01/29 07:49:24;;;;;;;;;82.00;65.00;;;;;1.37;55.29;101530.00;4821195;29;8899;-80
2024/01/29 07:51:53;;;;;;;;;78.75;61.75;;;;;1.81;54.22;101526.94;4827896;29;8897;-79
2024/01/29 07:54:23;;;;;;;;;81.50;64.00;;;;;2.23;53.10;101524.53;4780797;29;8920;-80
2024/01/29 07:56:53;;;;;;;;;86.75;67.25;;;;;2.08;53.79;101531.63;4783762;29;8897;-77
2024/01/29 07:59:23;;;;;;;;;92.67;73.67;;;;;1.94;53.96;101540.50;4784756;29;8924;-79
2024/01/29 08:01:52;;;;;;;;;93.33;72.00;;;;;1.56;54.94;101532.66;4783495;29;10181;-79
2024/01/29 08:04:21;;;;;;;;;76.75;59.25;;;;;2.22;53.68;101533.13;4770357;29;9233;-79
2024/01/29 08:06:50;;;;;;;;;63.00;51.50;;;;;2.44;52.27;101535.81;4785789;29;8900;-79
2024/01/29 08:09:19;;;;;;;;;79.50;64.75;;;;;2.21;52.98;101530.47;4783733;29;8971;-79
2024/01/29 08:11:48;;;;;;;;;89.00;71.00;;;;;2.70;52.27;101523.97;4753564;29;8913;-81
2024/01/29 08:14:19;;;;;;;;;67.67;53.33;;;;;2.91;51.88;101530.06;4782952;29;9085;-78
2024/01/29 08:16:48;;;;;;;;;79.50;61.75;;;;;2.98;49.78;101526.03;4818835;29;9081;-78
2024/01/29 08:19:17;;;;;;;;;76.00;61.00;;;;;3.12;49.88;101521.41;4804218;29;9911;-79
2024/01/29 08:21:48;;;;;;;;;86.00;68.33;;;;;3.17;50.02;101523.34;4804080;29;9069;-77
2024/01/29 08:24:17;;;;;;;;;71.00;57.50;;;;;3.24;48.31;101523.59;4804435;29;9051;-77
2024/01/29 08:26:46;;;;;;;;;70.75;58.50;;;;;3.13;48.94;101525.78;4787475;29;8925;-80
2024/01/29 08:29:15;;;;;;;;;78.75;64.25;;;;;3.52;48.99;101533.44;4801497;29;8882;-80
2024/01/29 08:31:45;;;;;;;;;67.00;55.25;;;;;3.64;47.64;101533.94;4814010;29;8897;-77
2024/01/29 08:34:14;;;;;;;;;86.00;68.33;;;;;3.94;48.14;101531.63;4856382;29;9637;-79
2024/01/29 08:36:43;;;;;;;;;86.33;65.67;;;;;4.23;47.43;101533.56;4858030;29;9130;-79
2024/01/29 08:39:13;;;;;;;;;80.00;62.25;;;;;4.48;46.83;101533.63;4860259;29;9309;-78
2024/01/29 08:41:42;;;;;;;;;76.75;59.50;;;;;4.11;45.76;101529.69;4854999;29;9088;-79
2024/01/29 08:44:11;;;;;;;;;77.50;61.75;;;;;4.30;45.78;101522.53;4837921;29;8897;-78
2024/01/29 08:46:40;;;;;;;;;69.25;57.50;;;;;4.34;45.65;101530.53;4838600;29;8896;-79
2024/01/29 08:49:12;;;;;;;;;67.50;53.00;;;;;4.33;45.19;101533.94;4855401;29;8890;-78
2024/01/29 08:51:41;;;;;;;;;69.25;53.50;;;;;4.62;45.13;101522.78;4855965;29;8954;-79
2024/01/29 08:54:10;;;;;;;;;63.00;49.25;;;;;4.75;43.93;101528.50;4850268;29;8899;-78
2024/01/29 08:56:40;;;;;;;;;57.00;45.50;;;;;4.79;44.16;101528.59;4856315;29;8907;-78
2024/01/29 08:59:09;;;;;;;;;50.50;44.00;;;;;5.03;43.64;101533.78;4829943;29;8885;-79
2024/01/29 09:01:39;;;;;;;;;56.00;46.00;;;;;4.24;43.72;101536.19;4840029;29;8967;-79
2024/01/29 09:04:09;;;;;;;;;33.75;33.75;;;;;4.27;43.63;101532.84;4822551;29;9694;-77
2024/01/29 09:06:38;;;;;;;;;43.00;31.50;;;;;4.33;43.69;101541.75;4834206;29;9639;-77
2024/01/29 09:09:07;;;;;;;;;46.00;37.60;;;;;4.56;43.60;101528.69;4845096;29;8888;-79
2024/01/29 09:11:36;;;;;;;;;42.50;38.00;;;;;4.83;43.24;101533.06;4840130;29;9003;-80
2024/01/29 09:14:05;;;;;;;;;26.20;25.00;;;;;3.20;42.95;101535.59;4824306;29;8883;-78
2024/01/29 09:16:34;;;;;;;;;33.40;30.80;;;;;2.63;45.58;101538.38;4835276;29;8890;-78
2024/01/29 09:19:03;;;;;;;;;34.40;33.80;;;;;2.75;45.98;101540.59;4837040;29;8910;-80
2024/01/29 09:21:35;;;;;;;;;33.60;26.40;;;;;1.97;46.58;101544.06;4838108;29;9724;-80
2024/01/29 09:24:05;;;;;;;;;31.40;31.20;;;;;1.79;47.95;101541.53;4839246;29;8887;-77
2024/01/29 09:26:34;;;;;;;;;29.60;28.80;;;;;1.85;48.11;101545.25;4847376;29;8870;-80
2024/01/29 09:29:03;;;;;;;;;46.75;41.50;;;;;1.77;48.22;101539.69;4837006;29;8881;-77
2024/01/29 09:31:32;;;;;;;;;22.50;17.00;;;;;1.80;48.09;101542.41;4805808;29;8926;-77
2024/01/29 09:34:02;;;;;;;;;35.00;32.25;;;;;1.42;49.21;101538.88;4799437;29;8885;-78
2024/01/29 09:36:33;;;;;;;;;43.75;38.00;;;;;1.59;49.48;101535.38;4806750;29;8992;-78
2024/01/29 09:39:02;;;;;;;;;27.80;22.80;;;;;2.21;47.92;101527.88;4835770;29;8916;-78
2024/01/29 09:41:34;;;;;;;;;45.50;38.25;;;;;2.02;47.28;101540.00;4821539;29;8996;-77
2024/01/29 09:44:07;;;;;;;;;43.00;38.00;;;;;1.78;48.41;101531.97;4826845;29;8893;-78
2024/01/29 09:46:38;;;;;;;;;60.50;49.50;;;;;1.55;49.38;101537.78;4836258;29;8909;-77
2024/01/29 09:49:08;;;;;;;;;52.00;46.25;;;;;1.62;49.54;101534.66;4820468;29;8954;-77
2024/01/29 09:51:39;;;;;;;;;51.75;43.25;;;;;1.66;50.05;101543.47;4821148;29;9745;-79
2024/01/29 09:54:09;;;;;;;;;58.75;47.50;;;;;1.78;50.10;101538.88;4836393;29;8909;-77
2024/01/29 09:56:38;;;;;;;;;65.25;48.75;;;;;1.65;50.51;101539.97;4809474;29;9019;-78
2024/01/29 09:59:07;;;;;;;;;73.50;58.00;;;;;1.54;50.97;101530.81;4815360;29;9289;-78
2024/01/29 10:01:37;;;;;;;;;66.00;53.75;;;;;1.97;49.95;101532.81;4852111;29;9742;-79
2024/01/29 10:04:06;;;;;;;;;57.50;49.25;;;;;1.71;51.10;101539.38;4831139;29;8940;-79
2024/01/29 10:06:35;;;;;;;;;66.75;52.25;;;;;1.57;51.27;101539.63;4839873;29;8894;-77
2024/01/29 10:09:06;;;;;;;;;63.50;52.25;;;;;2.04;50.92;101534.88;4854355;29;9671;-79
2024/01/29 10:11:37;;;;;;;;;60.25;48.50;;;;;2.67;49.97;101534.22;4836584;29;8887;-80
2024/01/29 10:14:08;;;;;;;;;64.25;50.00;;;;;2.86;48.95;101534.16;4836567;29;9047;-78
2024/01/29 10:16:37;;;;;;;;;61.75;50.25;;;;;2.47;49.08;101526.44;4837322;29;8893;-77
2024/01/29 10:19:05;;;;;;;;;63.75;50.50;;;;;2.89;48.26;101528.22;4833566;29;8997;-79
2024/01/29 10:21:38;;;;;;;;;62.75;48.50;;;;;3.56;47.79;101519.72;4835584;29;9706;-81
2024/01/29 10:24:13;;;;;;;;;71.75;59.00;;;;;3.55;46.73;101524.06;4835296;29;8885;-79
2024/01/29 10:26:43;;;;;;;;;64.50;53.00;;;;;3.24;47.20;101519.31;4835942;29;8920;-78
2024/01/29 10:29:15;;;;;;;;;66.75;54.00;;;;;3.93;46.25;101513.38;4820112;29;9027;-77
2024/01/29 10:31:45;;;;;;;;;73.00;58.00;;;;;4.15;45.84;101515.06;4835677;29;8900;-77
2024/01/29 10:34:14;;;;;;;;;67.00;56.00;;;;;4.48;45.72;101511.91;4834892;29;9711;-76
2024/01/29 10:36:46;;;;;;;;;73.25;57.75;;;;;3.92;46.77;101502.06;4834031;29;8938;-78
2024/01/29 10:39:22;;;;;;;;;64.25;52.25;;;;;4.41;45.26;101510.78;4802707;29;8899;-78
2024/01/29 10:41:53;;;;;;;;;66.50;54.00;;;;;4.17;45.35;101508.19;4821819;29;8880;-77
2024/01/29 10:44:25;;;;;;;;;62.00;50.25;;;;;4.43;45.09;101509.13;4836802;29;8980;-77
2024/01/29 10:46:59;;;;;;;;;67.25;56.75;;;;;4.25;45.13;101505.88;4836340;29;8904;-77
2024/01/29 10:49:29;;;;;;;;;66.50;56.75;;;;;3.24;47.57;101501.13;4836598;29;8891;-77
2024/01/29 10:52:00;;;;;;;;;64.25;52.00;;;;;3.09;48.49;101493.59;4840590;29;8884;-78
2024/01/29 10:54:33;;;;;;;;;65.25;52.75;;;;;3.89;47.69;101491.53;4847310;29;8911;-78
2024/01/29 10:57:04;;;;;;;;;66.25;54.75;;;;;4.30;45.38;101488.69;4836654;29;8892;-78
2024/01/29 10:59:33;;;;;;;;;44.75;41.00;;;;;4.01;44.97;101485.91;4835946;29;8946;-76
2024/01/29 11:02:03;;;;;;;;;51.00;41.25;;;;;4.32;44.60;101482.72;4851725;29;8955;-77
2024/01/29 11:04:32;;;;;;;;;50.75;43.25;;;;;4.85;44.04;101480.19;4790570;29;8900;-79
2024/01/29 11:07:11;;;;;;;;;60.00;49.25;;;;;4.51;44.17;101473.84;4851536;29;9610;-78
2024/01/29 11:09:51;;;;;;;;;54.75;45.25;;;;;3.74;45.16;101480.56;4836401;29;8934;-79
2024/01/29 11:12:21;;;;;;;;;58.50;47.75;;;;;3.84;45.86;101476.59;4843382;29;8892;-79
2024/01/29 11:14:59;;;;;;;;;55.00;44.50;;;;;3.74;45.85;101472.75;4836508;29;8871;-81
2024/01/29 11:17:28;;;;;;;;;58.00;46.50;;;;;3.58;46.15;101477.38;4834171;29;8894;-79
2024/01/29 11:20:01;;;;;;;;;46.75;41.25;;;;;3.75;45.58;101477.13;4825403;29;8911;-78
2024/01/29 11:22:38;;;;;;;;;48.75;44.00;;;;;3.74;46.58;101478.84;4802226;29;8916;-78
2024/01/29 11:25:14;;;;;;;;;56.75;45.00;;;;;3.71;45.82;101470.91;4823049;29;9002;-79
2024/01/29 11:27:44;;;;;;;;;53.00;45.75;;;;;3.27;46.99;101467.44;4821817;29;9027;-78
2024/01/29 11:30:16;;;;;;;;;52.25;45.50;;;;;3.96;45.28;101458.84;4810378;29;8950;-78
2024/01/29 11:32:46;;;;;;;;;45.25;38.50;;;;;4.41;44.41;101453.50;4805668;29;8931;-77
2024/01/29 11:35:18;;;;;;;;;56.50;44.75;;;;;4.62;44.29;101455.97;4823523;29;8877;-79